createdAt,value
2018-06-12T00:00:46.407Z,79.00
2018-06-12T00:03:14.778Z,79.50
2018-06-12T00:05:43.099Z,79.90
2018-06-12T00:08:11.556Z,80.50
2018-06-12T00:10:39.981Z,80.50
2018-06-12T00:13:08.758Z,80.70
2018-06-12T00:15:37.087Z,80.50
2018-06-12T00:18:05.450Z,80.00
2018-06-12T00:20:33.776Z,80.40
2018-06-12T00:23:02.124Z,80.40
2018-06-12T00:27:58.515Z,81.00
2018-06-12T00:30:26.841Z,81.00
2018-06-12T00:32:55.204Z,80.70
2018-06-12T00:35:23.532Z,80.90
2018-06-12T00:37:52.146Z,80.70
2018-06-12T00:40:20.499Z,80.60
2018-06-12T00:42:48.839Z,81.00
2018-06-12T00:45:17.166Z,80.70
2018-06-12T00:47:45.514Z,80.40
2018-06-12T00:50:13.856Z,80.60
2018-06-12T00:52:42.186Z,81.00
2018-06-12T00:55:10.539Z,81.40
2018-06-12T00:57:38.876Z,81.50
2018-06-12T01:00:07.243Z,82.50
2018-06-12T01:02:35.592Z,82.30
2018-06-12T01:05:03.978Z,82.80
2018-06-12T01:07:32.306Z,83.30
2018-06-12T01:10:00.659Z,83.30
2018-06-12T01:12:28.991Z,83.70
2018-06-12T01:14:57.338Z,83.80
2018-06-12T01:17:25.675Z,83.70
2018-06-12T01:19:54.029Z,83.70
2018-06-12T01:22:22.367Z,84.20
2018-06-12T01:24:50.729Z,84.10
2018-06-12T01:27:19.054Z,83.70
2018-06-12T01:29:47.415Z,84.00
2018-06-12T01:32:15.747Z,84.20
2018-06-12T01:34:44.098Z,83.90
2018-06-12T01:37:12.431Z,83.80
2018-06-12T01:39:40.787Z,84.00
2018-06-12T01:42:09.119Z,84.10
2018-06-12T01:44:37.463Z,83.90
2018-06-12T01:47:05.811Z,84.20
2018-06-12T01:49:34.151Z,84.40
2018-06-12T01:52:02.471Z,84.30
2018-06-12T01:54:30.809Z,84.40
2018-06-12T01:56:59.134Z,84.50
2018-06-12T01:59:27.480Z,84.60
2018-06-12T02:01:55.799Z,85.00
2018-06-12T02:04:24.130Z,85.50
2018-06-12T02:06:52.451Z,85.50
2018-06-12T02:09:20.791Z,85.70
2018-06-12T02:11:49.110Z,85.90
2018-06-12T02:14:17.451Z,86.70
2018-06-12T02:16:45.779Z,86.50
2018-06-12T02:19:14.147Z,86.50
2018-06-12T02:21:42.474Z,87.30
2018-06-12T02:24:10.811Z,86.70
2018-06-12T02:26:39.223Z,86.80
2018-06-12T02:29:07.576Z,86.90
2018-06-12T02:31:35.897Z,86.70
2018-06-12T02:34:04.242Z,86.80
2018-06-12T02:39:00.731Z,87.30
2018-06-12T02:41:29.051Z,87.50
2018-06-12T02:43:57.403Z,87.90
2018-06-12T02:46:25.760Z,88.40
2018-06-12T02:48:54.096Z,88.60
2018-06-12T02:51:22.445Z,88.70
2018-06-12T02:53:50.771Z,89.00
2018-06-12T02:56:19.193Z,89.20
2018-06-12T02:58:47.489Z,89.60
2018-06-12T03:01:15.887Z,89.20
2018-06-12T03:03:44.224Z,88.80
2018-06-12T03:06:12.567Z,89.80
2018-06-12T03:08:40.903Z,89.60
2018-06-12T03:11:09.259Z,90.30
2018-06-12T03:13:37.587Z,90.40
2018-06-12T03:16:05.958Z,90.60
2018-06-12T03:18:34.289Z,90.20
2018-06-12T03:21:02.736Z,90.80
2018-06-12T03:23:31.067Z,91.20
2018-06-12T03:26:00.327Z,90.60
2018-06-12T03:28:28.670Z,90.70
2018-06-12T03:30:57.019Z,91.10
2018-06-12T03:33:25.351Z,91.70
2018-06-12T03:35:53.731Z,91.50
2018-06-12T03:38:22.050Z,91.50
2018-06-12T03:40:50.408Z,90.70
2018-06-12T03:43:18.739Z,90.90
2018-06-12T03:45:47.095Z,91.10
2018-06-12T03:48:15.458Z,90.40
2018-06-12T03:50:43.854Z,90.70
2018-06-12T03:53:12.281Z,91.20
2018-06-12T03:55:40.623Z,91.60
2018-06-12T03:58:08.951Z,91.30
2018-06-12T04:00:37.299Z,91.30
2018-06-12T04:03:05.746Z,91.40
2018-06-12T04:05:34.094Z,90.40
2018-06-12T04:08:02.418Z,90.90
2018-06-12T04:10:30.771Z,91.10
2018-06-12T04:12:59.211Z,91.20
2018-06-12T04:15:27.565Z,90.80
2018-06-12T04:17:55.996Z,91.10
2018-06-12T04:20:24.366Z,91.20
2018-06-12T04:25:20.787Z,90.40
2018-06-12T04:27:49.123Z,91.10
2018-06-12T04:30:17.471Z,91.20
2018-06-12T04:32:45.804Z,91.20
2018-06-12T04:35:14.159Z,91.10
2018-06-12T04:37:42.495Z,91.20
2018-06-12T04:40:10.872Z,91.10
2018-06-12T04:42:39.192Z,90.70
2018-06-12T04:45:07.544Z,90.20
2018-06-12T04:47:35.886Z,90.30
2018-06-12T04:50:04.221Z,90.50
2018-06-12T04:52:32.571Z,89.90
2018-06-12T04:55:00.891Z,90.60
2018-06-12T04:57:29.235Z,90.20
2018-06-12T04:59:57.563Z,89.90
2018-06-12T05:02:25.913Z,89.80
2018-06-12T05:04:54.247Z,89.90
2018-06-12T05:07:22.591Z,89.80
2018-06-12T05:09:50.912Z,89.60
2018-06-12T05:12:19.259Z,89.70
2018-06-12T05:14:47.575Z,90.00
2018-06-12T05:17:15.911Z,89.80
2018-06-12T05:19:44.236Z,89.50
2018-06-12T05:22:12.579Z,89.40
2018-06-12T05:24:41.007Z,89.40
2018-06-12T05:27:09.370Z,89.30
2018-06-12T05:29:37.691Z,89.20
2018-06-12T05:34:34.098Z,89.30
2018-06-12T05:37:02.447Z,88.80
2018-06-12T05:39:30.767Z,88.90
2018-06-12T05:41:59.111Z,89.00
2018-06-12T05:44:27.436Z,89.20
2018-06-12T05:46:55.815Z,89.20
2018-06-12T05:49:24.144Z,88.80
2018-06-12T05:51:52.491Z,89.00
2018-06-12T05:54:20.811Z,88.90
2018-06-12T05:56:49.155Z,88.80
2018-06-12T05:59:17.490Z,88.60
2018-06-12T06:01:45.840Z,89.20
2018-06-12T06:04:14.167Z,88.20
2018-06-12T06:06:42.516Z,88.10
2018-06-12T06:09:10.857Z,88.00
2018-06-12T06:11:39.207Z,87.90
2018-06-12T06:14:07.536Z,87.80
2018-06-12T06:16:35.883Z,87.50
2018-06-12T06:19:04.225Z,87.30
2018-06-12T06:21:32.575Z,87.30
2018-06-12T06:24:00.911Z,87.20
2018-06-12T06:26:29.258Z,87.30
2018-06-12T06:28:57.589Z,86.10
2018-06-12T06:31:25.949Z,86.30
2018-06-12T06:33:54.277Z,85.80
2018-06-12T06:36:22.666Z,86.60
2018-06-12T06:38:50.998Z,87.00
2018-06-12T06:41:19.355Z,86.40
2018-06-12T06:43:47.687Z,86.50
2018-06-12T06:46:16.059Z,86.00
2018-06-12T06:48:44.411Z,86.10
2018-06-12T06:51:12.762Z,85.80
2018-06-12T06:53:41.146Z,85.80
2018-06-12T06:56:09.463Z,85.00
2018-06-12T06:58:37.922Z,85.50
2018-06-12T07:01:06.346Z,85.10
2018-06-12T07:03:34.694Z,84.30
2018-06-12T07:06:03.019Z,84.80
2018-06-12T07:08:31.411Z,83.60
2018-06-12T07:13:27.831Z,82.80
2018-06-12T07:15:56.167Z,82.60
2018-06-12T07:18:24.522Z,82.30
2018-06-12T07:21:24.542Z,82.30
2018-06-12T07:23:52.886Z,82.30
2018-06-12T07:26:21.227Z,81.10
2018-06-12T07:28:49.584Z,80.60
2018-06-12T07:31:17.927Z,81.20
2018-06-12T07:33:46.283Z,80.20
2018-06-12T07:36:14.640Z,80.50
2018-06-12T07:38:43.018Z,79.60
2018-06-12T07:41:11.355Z,79.20
2018-06-12T07:43:39.795Z,79.50
2018-06-12T07:46:08.128Z,79.80
2018-06-12T07:48:36.499Z,79.10
2018-06-12T07:51:04.847Z,79.10
2018-06-12T07:53:33.195Z,78.70
2018-06-12T07:56:01.527Z,79.10
2018-06-12T07:58:29.908Z,78.00
2018-06-12T08:00:58.275Z,78.20
2018-06-12T08:03:26.604Z,78.30
2018-06-12T08:05:55.031Z,78.60
2018-06-12T08:08:23.387Z,79.90
2018-06-12T08:10:51.714Z,77.80
2018-06-12T08:13:20.064Z,78.90
2018-06-12T08:15:48.387Z,79.00
2018-06-12T08:18:16.739Z,78.60
2018-06-12T08:20:45.067Z,78.40
2018-06-12T08:23:13.411Z,78.30
2018-06-12T08:25:41.746Z,79.00
2018-06-12T08:28:10.200Z,79.00
2018-06-12T08:30:38.625Z,79.00
2018-06-12T08:35:35.046Z,78.90
2018-06-12T08:38:03.356Z,78.90
2018-06-12T08:40:31.687Z,79.40
2018-06-12T08:43:00.041Z,78.80
2018-06-12T08:45:28.431Z,79.20
2018-06-12T08:47:56.794Z,78.90
2018-06-12T08:50:25.134Z,79.00
2018-06-12T08:52:53.490Z,79.50
2018-06-12T08:55:21.827Z,79.00
2018-06-12T08:57:50.175Z,78.90
2018-06-12T09:00:18.509Z,78.70
2018-06-12T09:02:46.915Z,78.50
2018-06-12T09:05:15.217Z,77.80
2018-06-12T09:07:43.570Z,78.20
2018-06-12T09:10:11.920Z,77.50
2018-06-12T09:12:40.267Z,77.60
2018-06-12T09:15:08.607Z,78.20
2018-06-12T09:17:37.018Z,77.60
2018-06-12T09:20:05.427Z,77.60
2018-06-12T09:22:33.760Z,78.00
2018-06-12T09:25:02.200Z,78.30
2018-06-12T09:27:34.778Z,79.20
2018-06-12T09:30:03.175Z,79.20
2018-06-12T09:32:31.503Z,79.30
2018-06-12T09:34:59.855Z,79.30
2018-06-12T09:37:28.187Z,78.40
2018-06-12T09:39:56.539Z,77.80
2018-06-12T09:42:24.884Z,77.20
2018-06-12T09:44:53.234Z,77.40
2018-06-12T09:47:21.578Z,76.90
2018-06-12T09:49:49.927Z,76.50
2018-06-12T09:52:18.283Z,75.70
2018-06-12T09:54:46.627Z,76.90
2018-06-12T09:57:14.991Z,76.00
2018-06-12T09:59:43.335Z,76.30
2018-06-12T10:02:11.677Z,75.50
2018-06-12T10:04:40.020Z,76.80
2018-06-12T10:07:08.354Z,75.80
2018-06-12T10:09:36.708Z,75.10
2018-06-12T10:12:05.048Z,74.50
2018-06-12T10:14:33.439Z,74.80
2018-06-12T10:17:02.055Z,75.00
2018-06-12T10:19:30.431Z,74.90
2018-06-12T10:21:58.759Z,75.30
2018-06-12T10:24:27.239Z,75.30
2018-06-12T10:26:55.587Z,75.20
2018-06-12T10:29:23.935Z,75.50
2018-06-12T10:31:52.259Z,75.30
2018-06-12T10:34:20.625Z,75.20
2018-06-12T10:36:48.976Z,75.20
2018-06-12T10:39:17.327Z,75.20
2018-06-12T10:41:45.662Z,75.00
2018-06-12T10:44:14.071Z,75.30
2018-06-12T10:46:42.409Z,75.90
2018-06-12T10:49:10.750Z,75.20
2018-06-12T10:51:39.092Z,75.90
2018-06-12T10:54:07.447Z,75.40
2018-06-12T10:56:35.781Z,76.30
2018-06-12T10:59:04.135Z,76.50
2018-06-12T11:01:32.472Z,76.00
2018-06-12T11:04:00.822Z,76.70
2018-06-12T11:06:29.143Z,76.60
2018-06-12T11:08:57.527Z,79.20
2018-06-12T11:11:25.895Z,78.40
2018-06-12T11:13:54.301Z,79.70
2018-06-12T11:16:22.619Z,79.20
2018-06-12T11:18:50.990Z,75.90
2018-06-12T11:21:19.311Z,77.10
2018-06-12T11:23:47.660Z,78.20
2018-06-12T11:26:16.023Z,77.90
2018-06-12T11:28:44.347Z,78.70
2018-06-12T11:31:12.702Z,76.70
2018-06-12T11:33:41.130Z,76.10
2018-06-12T11:36:09.475Z,75.90
2018-06-12T11:38:37.791Z,75.90
2018-06-12T11:41:06.171Z,75.60
2018-06-12T11:43:34.484Z,75.20
2018-06-12T11:46:02.823Z,74.70
2018-06-12T11:48:31.163Z,74.90
2018-06-12T11:50:59.546Z,74.60
2018-06-12T11:53:27.850Z,75.30
2018-06-12T11:55:56.203Z,75.40
2018-06-12T11:58:24.532Z,74.80
2018-06-12T12:00:52.898Z,75.10
2018-06-12T12:03:21.226Z,74.60
2018-06-12T12:05:49.587Z,73.70
2018-06-12T12:08:17.911Z,74.20
2018-06-12T12:10:46.268Z,73.80
2018-06-12T12:13:14.592Z,74.20
2018-06-12T12:15:42.942Z,74.30
2018-06-12T12:18:11.263Z,73.10
2018-06-12T12:20:39.603Z,72.90
2018-06-12T12:23:07.940Z,72.30
2018-06-12T12:25:36.307Z,73.30
2018-06-12T12:28:04.895Z,74.10
2018-06-12T12:30:33.243Z,75.40
2018-06-12T12:33:01.572Z,75.10
2018-06-12T12:35:29.915Z,74.70
2018-06-12T12:37:58.334Z,73.90
2018-06-12T12:40:26.715Z,74.00
2018-06-12T12:42:55.039Z,75.20
2018-06-12T12:45:23.398Z,75.10
2018-06-12T12:47:51.743Z,75.20
2018-06-12T12:50:20.091Z,74.20
2018-06-12T12:52:48.471Z,75.70
2018-06-12T12:55:16.824Z,74.10
2018-06-12T12:57:45.151Z,74.50
2018-06-12T13:00:13.499Z,74.40
2018-06-12T13:02:41.817Z,73.70
2018-06-12T13:05:10.190Z,73.50
2018-06-12T13:07:38.530Z,73.30
2018-06-12T13:10:06.899Z,72.40
2018-06-12T13:12:35.225Z,74.50
2018-06-12T13:15:03.587Z,75.20
2018-06-12T13:17:31.999Z,73.20
2018-06-12T13:20:00.374Z,75.40
2018-06-12T13:22:28.711Z,77.00
2018-06-12T13:24:57.043Z,77.30
2018-06-12T13:27:25.398Z,74.00
2018-06-12T13:29:53.805Z,75.10
2018-06-12T13:32:22.171Z,74.80
2018-06-12T13:34:50.495Z,74.00
2018-06-12T13:37:18.875Z,73.70
2018-06-12T13:39:47.211Z,73.10
2018-06-12T13:42:15.567Z,73.30
2018-06-12T13:44:43.895Z,72.40
2018-06-12T13:47:12.243Z,73.20
2018-06-12T13:49:40.596Z,73.00
2018-06-12T13:52:09.033Z,71.60
2018-06-12T13:54:37.360Z,71.50
2018-06-12T13:57:05.879Z,71.70
2018-06-12T13:59:34.191Z,71.40
2018-06-12T14:02:02.539Z,73.30
2018-06-12T14:04:30.859Z,73.20
2018-06-12T14:06:59.197Z,74.50
2018-06-12T14:09:27.558Z,76.10
2018-06-12T14:11:55.903Z,74.70
2018-06-12T14:14:24.223Z,76.40
2018-06-12T14:16:52.577Z,74.60
2018-06-12T14:19:20.895Z,75.10
2018-06-12T14:21:49.248Z,76.30
2018-06-12T14:24:17.570Z,76.20
2018-06-12T14:26:45.915Z,75.50
2018-06-12T14:29:14.231Z,75.80
2018-06-12T14:31:42.562Z,77.90
2018-06-12T14:34:10.888Z,76.80
2018-06-12T14:36:39.235Z,78.20
2018-06-12T14:39:09.222Z,78.70
2018-06-12T14:41:37.944Z,78.90
2018-06-12T14:44:06.677Z,79.20
2018-06-12T14:46:35.141Z,79.70
2018-06-12T14:49:03.468Z,82.20
2018-06-12T14:51:31.813Z,82.60
2018-06-12T14:54:00.131Z,82.40
2018-06-12T14:56:28.505Z,81.70
2018-06-12T14:58:56.831Z,83.10
2018-06-12T15:01:25.175Z,84.00
2018-06-12T15:03:53.531Z,83.60
2018-06-12T15:06:21.905Z,84.10
2018-06-12T15:08:50.226Z,83.50
2018-06-12T15:11:18.574Z,84.60
2018-06-12T15:13:46.886Z,85.80
2018-06-12T15:16:15.247Z,85.10
2018-06-12T15:18:43.575Z,85.60
2018-06-12T15:21:12.011Z,84.70
2018-06-12T15:23:40.331Z,84.90
2018-06-12T15:26:08.658Z,85.30
2018-06-12T15:28:37.011Z,85.30
2018-06-12T15:31:05.340Z,86.40
2018-06-12T15:33:33.700Z,86.50
2018-06-12T15:36:02.032Z,86.60
2018-06-12T15:38:30.619Z,87.00
2018-06-12T15:40:58.968Z,86.90
2018-06-12T15:43:27.339Z,87.20
2018-06-12T15:45:55.683Z,87.40
2018-06-12T15:48:24.051Z,85.90
2018-06-12T15:50:52.383Z,85.00
2018-06-12T15:53:20.743Z,85.10
2018-06-12T15:55:49.084Z,86.10
2018-06-12T15:58:17.551Z,86.60
2018-06-12T16:00:45.910Z,87.00
2018-06-12T16:03:14.243Z,88.50
2018-06-12T16:05:42.624Z,88.90
2018-06-12T16:08:11.007Z,89.30
2018-06-12T16:10:39.338Z,90.70
2018-06-12T16:13:07.699Z,90.30
2018-06-12T16:15:36.038Z,89.70
2018-06-12T16:20:32.488Z,90.20
2018-06-12T16:23:00.854Z,89.80
2018-06-12T16:25:29.246Z,91.10
2018-06-12T16:27:57.647Z,92.00
2018-06-12T16:30:26.099Z,92.00
2018-06-12T16:32:54.446Z,91.30
2018-06-12T16:35:22.795Z,92.30
2018-06-12T16:37:51.151Z,92.40
2018-06-12T16:40:19.508Z,91.40
2018-06-12T16:42:47.917Z,91.50
2018-06-12T16:45:16.256Z,90.90
2018-06-12T16:47:44.713Z,90.50
2018-06-12T16:50:13.041Z,90.60
2018-06-12T16:52:41.455Z,90.00
2018-06-12T16:55:09.804Z,90.30
2018-06-12T16:57:38.159Z,91.30
2018-06-12T17:00:06.507Z,89.60
2018-06-12T17:02:34.959Z,89.70
2018-06-12T17:05:03.468Z,89.30
2018-06-12T17:07:31.851Z,90.90
2018-06-12T17:10:00.227Z,90.10
2018-06-12T17:12:28.587Z,90.90
2018-06-12T17:14:56.951Z,91.70
2018-06-12T17:17:25.303Z,90.60
2018-06-12T17:19:53.643Z,90.20
2018-06-12T17:22:22.039Z,89.70
2018-06-12T17:24:50.390Z,89.40
2018-06-12T17:27:18.775Z,89.70
2018-06-12T17:29:47.143Z,89.60
2018-06-12T17:32:15.484Z,89.90
2018-06-12T17:34:43.935Z,90.10
2018-06-12T17:37:12.316Z,89.00
2018-06-12T17:39:40.687Z,88.20
2018-06-12T17:42:09.207Z,88.80
2018-06-12T17:44:37.555Z,88.80
2018-06-12T17:47:05.903Z,87.30
2018-06-12T17:52:02.324Z,85.50
2018-06-12T17:54:30.686Z,86.40
2018-06-12T17:56:59.055Z,86.30
2018-06-12T17:59:27.431Z,84.70
2018-06-12T18:01:55.762Z,84.60
2018-06-12T18:04:24.126Z,85.40
2018-06-12T18:06:52.467Z,84.20
2018-06-12T18:09:20.965Z,85.20
2018-06-12T18:11:49.307Z,85.70
2018-06-12T18:14:17.776Z,85.50
2018-06-12T18:16:46.141Z,84.80
2018-06-12T18:19:14.559Z,84.20
2018-06-12T18:21:42.908Z,84.40
2018-06-12T18:24:11.252Z,84.90
2018-06-12T18:26:39.655Z,85.40
2018-06-12T18:29:08.011Z,84.90
2018-06-12T18:31:36.403Z,85.10
2018-06-12T18:34:04.964Z,85.60
2018-06-12T18:36:33.325Z,85.60
2018-06-12T18:39:01.671Z,85.90
2018-06-12T18:41:30.135Z,86.10
2018-06-12T18:43:58.502Z,87.50
2018-06-12T18:46:26.946Z,87.90
2018-06-12T18:48:55.317Z,87.80
2018-06-12T18:51:23.692Z,88.10
2018-06-12T18:53:52.041Z,87.70
2018-06-12T18:56:20.503Z,87.40
2018-06-12T18:58:48.862Z,88.20
2018-06-12T19:03:45.303Z,88.00
2018-06-12T19:06:13.622Z,88.20
2018-06-12T19:08:41.979Z,88.50
2018-06-12T19:11:10.336Z,88.50
2018-06-12T19:13:38.735Z,88.40
2018-06-12T19:16:07.052Z,88.70
2018-06-12T19:18:35.424Z,89.30
2018-06-12T19:21:03.759Z,89.20
2018-06-12T19:23:32.200Z,89.20
2018-06-12T19:26:00.559Z,89.20
2018-06-12T19:28:28.890Z,89.50
2018-06-12T19:30:57.234Z,89.40
2018-06-12T19:33:25.716Z,89.70
2018-06-12T19:35:54.075Z,89.90
2018-06-12T19:38:22.459Z,89.50
2018-06-12T19:40:50.836Z,89.70
2018-06-12T19:43:19.173Z,89.80
2018-06-12T19:45:47.578Z,89.80
2018-06-12T19:48:15.951Z,89.90
2018-06-12T19:50:44.307Z,90.20
2018-06-12T19:53:12.634Z,90.00
2018-06-12T19:55:40.995Z,89.10
2018-06-12T19:58:09.327Z,89.20
2018-06-12T20:00:37.706Z,89.20
2018-06-12T20:03:06.215Z,89.50
2018-06-12T20:05:34.575Z,89.60
2018-06-12T20:08:02.947Z,90.00
2018-06-12T20:10:31.311Z,90.00
2018-06-12T20:12:59.652Z,90.10
2018-06-12T20:15:28.015Z,90.50
2018-06-12T20:17:56.351Z,90.90
2018-06-12T20:20:24.711Z,90.60
2018-06-12T20:22:53.051Z,90.50
2018-06-12T20:25:21.398Z,90.90
2018-06-12T20:27:49.731Z,91.10
2018-06-12T20:30:18.107Z,91.00
2018-06-12T20:32:46.449Z,91.20
2018-06-12T20:35:14.800Z,90.80
2018-06-12T20:37:43.134Z,90.50
2018-06-12T20:40:11.549Z,90.40
2018-06-12T20:42:39.856Z,90.20
2018-06-12T20:45:08.260Z,90.10
2018-06-12T20:47:36.611Z,90.30
2018-06-12T20:50:05.376Z,90.20
2018-06-12T20:52:33.719Z,90.80
2018-06-12T20:55:02.067Z,90.90
2018-06-12T20:57:30.396Z,90.50
2018-06-12T20:59:58.758Z,90.30
2018-06-12T21:02:27.087Z,90.60
2018-06-12T21:04:55.483Z,90.20
2018-06-12T21:07:23.841Z,90.30
2018-06-12T21:09:52.199Z,90.00
2018-06-12T21:12:20.622Z,90.10
2018-06-12T21:14:48.973Z,89.60
2018-06-12T21:17:17.304Z,89.50
2018-06-12T21:19:45.655Z,89.90
2018-06-12T21:22:14.003Z,90.00
2018-06-12T21:24:42.350Z,90.10
2018-06-12T21:27:10.679Z,90.40
2018-06-12T21:29:39.011Z,90.50
2018-06-12T21:32:07.363Z,90.40
2018-06-12T21:34:35.727Z,90.10
2018-06-12T21:37:04.094Z,90.00
2018-06-12T21:39:32.423Z,89.80
2018-06-12T21:42:00.796Z,89.60
2018-06-12T21:44:29.137Z,89.30
2018-06-12T21:46:57.511Z,89.30
2018-06-12T21:49:25.842Z,89.50
2018-06-12T21:51:54.196Z,89.50
2018-06-12T21:54:22.527Z,89.70
2018-06-12T21:56:50.871Z,88.60
2018-06-12T21:59:19.212Z,89.20
2018-06-12T22:01:47.556Z,88.80
2018-06-12T22:04:15.887Z,89.20
2018-06-12T22:06:44.256Z,89.40
2018-06-12T22:09:12.594Z,88.40
2018-06-12T22:11:40.990Z,88.20
2018-06-12T22:14:09.324Z,88.10
2018-06-12T22:16:37.684Z,88.80
2018-06-12T22:19:06.002Z,88.70
2018-06-12T22:21:34.363Z,89.00
2018-06-12T22:24:02.696Z,88.30
2018-06-12T22:26:31.061Z,88.20
2018-06-12T22:28:59.395Z,88.00
2018-06-12T22:31:27.742Z,88.20
2018-06-12T22:33:56.070Z,88.10
2018-06-12T22:36:24.419Z,88.40
2018-06-12T22:38:52.768Z,88.60
2018-06-12T22:41:21.123Z,88.30
2018-06-12T22:43:49.451Z,88.10
2018-06-12T22:46:17.804Z,88.10
2018-06-12T22:48:46.143Z,88.20
2018-06-12T22:51:14.885Z,88.10
2018-06-12T22:53:43.207Z,87.60
2018-06-12T22:56:11.543Z,87.60
2018-06-12T22:58:39.864Z,88.20
2018-06-12T23:01:08.215Z,87.00
2018-06-12T23:03:36.534Z,87.60
2018-06-12T23:06:04.871Z,87.80
2018-06-12T23:08:33.196Z,87.50
2018-06-12T23:11:01.539Z,87.60
2018-06-12T23:13:29.867Z,87.90
2018-06-12T23:15:58.203Z,87.40
2018-06-12T23:18:26.529Z,87.30
2018-06-12T23:22:06.187Z,87.10
2018-06-12T23:24:34.511Z,86.90
2018-06-12T23:27:02.861Z,87.70
2018-06-12T23:29:31.188Z,87.50
2018-06-12T23:31:59.519Z,87.10
2018-06-12T23:34:27.839Z,86.70
2018-06-12T23:36:56.175Z,86.70
2018-06-12T23:39:24.537Z,86.30
2018-06-12T23:41:52.859Z,85.80
2018-06-12T23:44:22.015Z,86.10
2018-06-12T23:46:50.375Z,85.90
2018-06-12T23:49:18.717Z,85.70
2018-06-12T23:51:47.072Z,86.00
2018-06-12T23:54:15.392Z,86.10
2018-06-12T23:56:43.704Z,86.30
2018-06-12T23:59:12.045Z,86.20
